createdAt,value
2023-05-13T00:01:19.009Z,6.25
2023-05-13T00:07:38.082Z,5.78
2023-05-13T00:13:27.306Z,6.13
2023-05-13T06:50:43.348Z,3.83
2023-05-13T07:11:40.880Z,4.25
2023-05-13T07:14:45.744Z,3.42
2023-05-13T07:17:44.469Z,3.53
2023-05-13T07:26:17.157Z,3.58
2023-05-13T07:32:08.063Z,3.38
2023-05-13T07:34:45.347Z,3.40
2023-05-13T07:37:57.809Z,3.58
2023-05-13T07:43:44.470Z,3.65
2023-05-13T07:49:31.661Z,3.47
2023-05-13T07:55:21.710Z,2.78
2023-05-13T08:01:05.744Z,3.33
2023-05-13T08:06:54.903Z,2.97
2023-05-13T08:12:42.223Z,3.38
2023-05-13T08:15:26.367Z,2.90
2023-05-13T08:21:14.280Z,3.13
2023-05-13T08:23:51.598Z,3.20
2023-05-13T08:26:55.174Z,2.90
2023-05-13T08:29:44.162Z,2.92
2023-05-13T08:38:44.561Z,3.50
2023-05-13T08:44:51.618Z,3.40
2023-05-13T08:47:35.481Z,3.10
2023-05-13T08:50:18.094Z,2.80
2023-05-13T08:52:49.433Z,3.38
2023-05-13T09:01:18.485Z,3.60
2023-05-13T09:04:06.034Z,3.70
2023-05-13T09:10:33.384Z,4.00
2023-05-13T09:13:03.741Z,3.92
2023-05-13T09:18:51.693Z,5.47
2023-05-13T09:34:29.753Z,4.50
2023-05-13T09:43:44.685Z,6.38
2023-05-13T09:46:21.083Z,7.32
2023-05-13T09:49:01.838Z,10.65
2023-05-13T09:52:08.443Z,6.25
2023-05-13T09:55:17.977Z,6.10
2023-05-13T10:04:21.586Z,5.95
2023-05-13T10:07:10.830Z,5.00
2023-05-13T10:09:58.376Z,5.30
2023-05-13T10:12:30.964Z,5.55
2023-05-13T10:15:02.111Z,5.30
2023-05-13T10:17:46.959Z,5.60
2023-05-13T10:20:24.588Z,6.22
2023-05-13T10:22:58.977Z,6.03
2023-05-13T10:25:39.229Z,5.78
2023-05-13T10:28:18.186Z,6.20
2023-05-13T10:30:56.280Z,6.03
2023-05-13T10:33:27.411Z,6.75
2023-05-13T10:36:02.249Z,6.55
2023-05-13T10:38:55.075Z,6.47
2023-05-13T10:41:41.616Z,6.90
2023-05-13T10:44:10.682Z,5.78
2023-05-13T10:46:54.116Z,6.53
2023-05-13T10:49:23.821Z,6.47
2023-05-13T10:52:21.693Z,6.82
2023-05-13T10:55:13.480Z,6.70
2023-05-13T10:58:03.924Z,5.80
2023-05-13T11:00:54.651Z,6.88
2023-05-13T11:03:41.252Z,9.05
2023-05-13T11:06:16.393Z,7.90
2023-05-13T11:09:12.242Z,8.60
2023-05-13T11:12:00.042Z,8.43
2023-05-13T11:14:38.007Z,8.70
2023-05-13T11:17:20.361Z,7.95
2023-05-13T11:19:55.383Z,7.70
2023-05-13T11:22:31.703Z,8.07
2023-05-13T11:25:12.857Z,8.52
2023-05-13T11:27:50.749Z,8.68
2023-05-13T11:30:27.562Z,9.55
2023-05-13T11:33:09.773Z,9.73
2023-05-13T11:35:38.134Z,8.45
2023-05-13T11:38:23.218Z,8.95
2023-05-13T11:41:01.167Z,8.98
2023-05-13T11:43:32.862Z,9.57
2023-05-13T11:46:12.938Z,9.52
2023-05-13T11:48:49.750Z,9.85
2023-05-13T11:51:40.169Z,9.10
2023-05-13T11:54:09.316Z,9.45
2023-05-13T11:56:56.452Z,8.93
2023-05-13T11:59:58.646Z,9.93
2023-05-13T12:02:32.913Z,8.50
2023-05-13T12:05:14.219Z,9.07
2023-05-13T12:10:17.364Z,8.25
2023-05-13T12:12:46.883Z,8.90
2023-05-13T12:15:15.909Z,8.20
2023-05-13T12:17:59.616Z,8.50
2023-05-13T12:20:30.751Z,9.13
2023-05-13T12:23:30.029Z,8.65
2023-05-13T12:26:16.602Z,9.45
2023-05-13T12:29:22.879Z,9.80
2023-05-13T12:32:07.812Z,9.73
2023-05-13T12:34:38.089Z,9.60
2023-05-13T12:37:21.439Z,10.40
2023-05-13T12:40:00.219Z,9.15
2023-05-13T12:42:29.105Z,9.48
2023-05-13T12:45:05.225Z,10.25
2023-05-13T12:47:49.446Z,10.45
2023-05-13T12:50:24.804Z,9.23
2023-05-13T12:52:54.644Z,11.48
2023-05-13T12:55:29.017Z,10.85
2023-05-13T12:58:05.022Z,10.50
2023-05-13T13:00:43.164Z,11.45
2023-05-13T13:03:41.253Z,11.15
2023-05-13T13:06:11.946Z,11.73
2023-05-13T13:08:41.370Z,11.50
2023-05-13T13:11:27.830Z,11.07
2023-05-13T13:13:56.738Z,11.13
2023-05-13T13:16:59.375Z,11.35
2023-05-13T13:20:06.299Z,11.50
2023-05-13T13:23:01.460Z,12.20
2023-05-13T13:25:36.413Z,11.68
2023-05-13T13:28:17.353Z,11.48
2023-05-13T13:30:57.917Z,12.20
2023-05-13T13:33:46.246Z,12.77
2023-05-13T13:36:24.476Z,12.38
2023-05-13T13:38:57.589Z,12.20
2023-05-13T13:41:27.142Z,11.75
2023-05-13T13:43:57.334Z,12.63
2023-05-13T13:46:26.960Z,11.55
2023-05-13T13:48:55.501Z,11.68
2023-05-13T13:51:26.837Z,11.82
2023-05-13T13:56:24.386Z,11.05
2023-05-13T13:58:57.189Z,10.80
2023-05-13T14:01:32.711Z,11.25
2023-05-13T14:04:29.315Z,11.82
2023-05-13T14:06:57.477Z,11.20
2023-05-13T14:09:25.615Z,10.98
2023-05-13T14:11:58.151Z,10.30
2023-05-13T14:14:30.339Z,10.80
2023-05-13T14:16:58.610Z,10.38
2023-05-13T14:19:29.934Z,10.98
2023-05-13T14:24:29.182Z,10.70
2023-05-13T14:29:24.933Z,12.30
2023-05-13T14:31:54.982Z,11.82
2023-05-13T14:34:24.709Z,12.43
2023-05-13T14:36:58.876Z,11.70
2023-05-13T14:39:34.166Z,11.88
2023-05-13T14:42:12.960Z,11.80
2023-05-13T14:44:42.926Z,11.23
2023-05-13T14:47:13.091Z,11.88
2023-05-13T14:49:42.348Z,12.35
2023-05-13T14:52:18.590Z,11.38
2023-05-13T14:54:58.872Z,12.23
2023-05-13T14:57:31.256Z,13.35
2023-05-13T15:00:21.085Z,12.18
2023-05-13T15:03:02.640Z,13.18
2023-05-13T15:08:07.359Z,12.10
2023-05-13T15:10:45.916Z,13.00
2023-05-13T15:13:13.910Z,12.30
2023-05-13T15:15:46.210Z,13.18
2023-05-13T15:18:24.060Z,12.05
2023-05-13T15:21:02.131Z,12.98
2023-05-13T15:23:31.302Z,12.35
2023-05-13T15:26:08.510Z,12.15
2023-05-13T15:28:43.779Z,11.77
2023-05-13T15:31:13.015Z,12.45
2023-05-13T15:33:43.890Z,13.27
2023-05-13T15:36:13.407Z,12.75
2023-05-13T15:38:44.969Z,12.75
2023-05-13T15:41:12.956Z,12.40
2023-05-13T15:47:23.170Z,13.05
2023-05-13T15:49:58.182Z,13.27
2023-05-13T15:52:48.377Z,13.07
2023-05-13T15:55:40.902Z,12.85
2023-05-13T15:58:11.141Z,12.52
2023-05-13T16:00:39.474Z,14.32
2023-05-13T16:03:07.557Z,12.30
2023-05-13T16:05:54.555Z,13.45
2023-05-13T16:11:41.226Z,12.68
2023-05-13T16:14:13.360Z,13.40
2023-05-13T16:16:46.393Z,12.02
2023-05-13T16:19:14.628Z,13.30
2023-05-13T16:21:45.741Z,12.90
2023-05-13T16:24:32.268Z,12.02
2023-05-13T16:27:07.669Z,11.52
2023-05-13T16:29:40.182Z,12.27
2023-05-13T16:32:36.250Z,13.18
2023-05-13T16:35:16.636Z,13.45
2023-05-13T16:37:52.953Z,13.23
2023-05-13T16:40:40.533Z,11.73
2023-05-13T16:43:14.752Z,11.88
2023-05-13T16:46:17.410Z,11.65
2023-05-13T16:49:06.064Z,12.00
2023-05-13T16:51:54.476Z,11.50
2023-05-13T16:54:22.948Z,11.82
2023-05-13T16:56:53.515Z,11.93
2023-05-13T16:59:44.144Z,11.57
2023-05-13T17:02:23.501Z,11.60
2023-05-13T17:04:53.899Z,12.65
2023-05-13T17:07:21.946Z,11.80
2023-05-13T17:13:02.650Z,10.98
2023-05-13T17:15:38.064Z,12.18
2023-05-13T17:18:19.317Z,11.40
2023-05-13T17:20:50.588Z,12.32
2023-05-13T17:23:30.169Z,10.75
2023-05-13T17:26:10.401Z,11.68
2023-05-13T17:28:50.893Z,11.35
2023-05-13T17:31:23.185Z,11.73
2023-05-13T17:33:58.435Z,12.10
2023-05-13T17:36:43.884Z,11.95
2023-05-13T17:39:11.935Z,11.93
2023-05-13T17:41:48.426Z,12.32
2023-05-13T17:44:19.078Z,13.02
2023-05-13T17:46:56.461Z,12.32
2023-05-13T17:49:32.938Z,13.15
2023-05-13T17:52:03.186Z,12.32
2023-05-13T17:54:36.464Z,12.55
2023-05-13T17:57:05.038Z,12.07
2023-05-13T17:59:40.489Z,11.77
2023-05-13T18:02:10.205Z,13.00
2023-05-13T18:04:40.395Z,12.13
2023-05-13T18:07:10.617Z,12.70
2023-05-13T18:09:52.974Z,12.32
2023-05-13T18:12:22.811Z,12.23
2023-05-13T18:18:07.945Z,12.35
2023-05-13T18:20:37.254Z,13.05
2023-05-13T18:23:05.202Z,13.50
2023-05-13T18:25:56.637Z,11.60
2023-05-13T18:28:46.378Z,12.75
2023-05-13T18:31:18.877Z,11.23
2023-05-13T18:33:47.185Z,12.45
2023-05-13T18:36:20.645Z,11.85
2023-05-13T18:39:07.714Z,12.00
2023-05-13T18:41:45.938Z,12.68
2023-05-13T18:44:48.026Z,11.45
2023-05-13T18:47:31.389Z,11.98
2023-05-13T18:50:09.003Z,10.70
2023-05-13T18:53:04.661Z,11.70
2023-05-13T18:55:46.347Z,11.40
2023-05-13T18:58:26.287Z,11.27
2023-05-13T19:00:59.771Z,11.52
2023-05-13T19:03:34.335Z,12.25
2023-05-13T19:06:14.735Z,12.45
2023-05-13T19:09:11.921Z,11.10
2023-05-13T19:11:54.079Z,10.52
2023-05-13T19:14:27.442Z,10.82
2023-05-13T19:17:01.481Z,10.88
2023-05-13T19:19:31.591Z,11.32
2023-05-13T19:22:03.692Z,10.38
2023-05-13T19:24:58.986Z,11.05
2023-05-13T19:27:39.161Z,11.63
2023-05-13T19:30:08.886Z,12.10
2023-05-13T19:32:43.044Z,11.45
2023-05-13T19:35:27.755Z,12.15
2023-05-13T19:38:05.216Z,11.45
2023-05-13T19:40:37.473Z,11.13
2023-05-13T19:43:07.844Z,11.52
2023-05-13T19:45:49.108Z,11.90
2023-05-13T19:48:19.511Z,12.60
2023-05-13T19:50:48.121Z,12.27
2023-05-13T19:53:18.294Z,12.50
2023-05-13T19:55:47.663Z,13.18
2023-05-13T19:58:18.447Z,12.27
2023-05-13T20:00:47.023Z,11.63
2023-05-13T20:03:16.638Z,13.38
2023-05-13T20:05:49.665Z,12.27
2023-05-13T20:08:19.929Z,12.07
2023-05-13T20:11:05.820Z,11.60
2023-05-13T20:13:34.177Z,11.63
2023-05-13T20:16:34.579Z,12.18
2023-05-13T20:19:18.229Z,13.85
2023-05-13T20:21:47.625Z,11.30
2023-05-13T20:24:17.231Z,11.57
2023-05-13T20:26:57.501Z,11.85
2023-05-13T20:32:44.931Z,12.02
2023-05-13T20:35:42.302Z,12.93
2023-05-13T20:38:13.453Z,11.80
2023-05-13T20:40:42.385Z,12.63
2023-05-13T20:43:18.634Z,12.48
2023-05-13T20:45:46.843Z,12.45
2023-05-13T20:48:18.050Z,12.57
2023-05-13T20:50:48.395Z,12.43
2023-05-13T20:53:24.644Z,12.07
2023-05-13T20:55:54.742Z,12.20
2023-05-13T20:58:26.562Z,12.10
2023-05-13T21:00:54.566Z,12.63
2023-05-13T21:03:23.872Z,13.40
2023-05-13T21:05:53.028Z,12.25
2023-05-13T21:08:29.364Z,13.10
2023-05-13T21:10:58.279Z,12.32
2023-05-13T21:13:27.515Z,12.82
2023-05-13T21:15:57.115Z,12.45
2023-05-13T21:18:25.475Z,12.05
2023-05-13T21:20:55.454Z,12.55
2023-05-13T21:23:27.583Z,13.10
2023-05-13T21:26:00.489Z,11.68
2023-05-13T21:28:37.893Z,12.48
2023-05-13T21:31:17.551Z,12.55
2023-05-13T21:34:05.529Z,12.25
2023-05-13T21:36:58.716Z,12.35
2023-05-13T21:39:43.163Z,11.68
2023-05-13T21:42:18.596Z,12.82
2023-05-13T21:44:55.772Z,11.88
2023-05-13T21:47:59.538Z,12.13
2023-05-13T21:50:27.922Z,12.18
2023-05-13T21:52:57.144Z,11.02
2023-05-13T21:55:29.134Z,11.85
2023-05-13T21:57:59.402Z,12.38
2023-05-13T22:00:31.781Z,12.63
2023-05-13T22:06:18.468Z,11.13
2023-05-13T22:08:50.624Z,11.75
2023-05-13T22:11:19.788Z,12.05
2023-05-13T22:13:47.916Z,11.82
2023-05-13T22:16:32.445Z,11.95
2023-05-13T22:19:08.243Z,10.95
2023-05-13T22:22:08.605Z,11.02
2023-05-13T22:24:43.600Z,11.50
2023-05-13T22:27:19.081Z,10.98
2023-05-13T22:33:05.677Z,11.00
2023-05-13T22:35:37.750Z,12.05
2023-05-13T22:38:48.838Z,10.63
2023-05-13T22:41:25.214Z,12.38
2023-05-13T22:44:16.602Z,11.13
2023-05-13T22:47:00.793Z,10.40
2023-05-13T22:49:30.905Z,11.25
2023-05-13T22:52:00.953Z,11.10
2023-05-13T22:54:29.575Z,11.20
2023-05-13T22:57:06.867Z,11.35
2023-05-13T22:59:36.368Z,11.07
2023-05-13T23:02:04.679Z,11.63
2023-05-13T23:04:59.994Z,10.85
2023-05-13T23:07:28.141Z,11.30
2023-05-13T23:09:56.175Z,10.90
2023-05-13T23:12:30.502Z,11.77
2023-05-13T23:15:00.845Z,12.10
2023-05-13T23:17:33.185Z,10.27
2023-05-13T23:20:38.862Z,11.00
2023-05-13T23:23:21.832Z,12.73
2023-05-13T23:25:54.837Z,10.95
2023-05-13T23:28:37.142Z,11.82
2023-05-13T23:31:07.147Z,11.90
2023-05-13T23:33:45.461Z,11.10
2023-05-13T23:36:15.508Z,10.82
2023-05-13T23:38:49.884Z,10.90
2023-05-13T23:41:30.461Z,10.95
2023-05-13T23:44:02.736Z,11.73
2023-05-13T23:46:30.855Z,11.25
2023-05-13T23:49:10.068Z,10.95
2023-05-13T23:51:51.269Z,10.05
2023-05-13T23:54:28.512Z,10.77
2023-05-13T23:57:07.626Z,9.93
2023-05-13T23:59:52.639Z,10.73
